createdAt,value
2023-03-01T00:01:36.733Z,26.92
2023-03-01T00:04:05.261Z,22.70
2023-03-01T00:06:32.672Z,22.23
2023-03-01T00:09:00.102Z,22.90
2023-03-01T00:11:28.850Z,23.98
2023-03-01T00:13:57.978Z,25.73
2023-03-01T00:16:26.919Z,24.77
2023-03-01T00:18:55.224Z,23.30
2023-03-01T00:21:24.621Z,21.02
2023-03-01T00:23:52.344Z,24.80
2023-03-01T00:26:21.204Z,20.98
2023-03-01T00:28:48.571Z,25.83
2023-03-01T00:31:18.159Z,56.60
2023-03-01T00:33:45.724Z,47.78
2023-03-01T00:36:15.554Z,44.50
2023-03-01T00:38:46.077Z,28.83
2023-03-01T00:41:15.380Z,56.65
2023-03-01T00:43:42.688Z,41.00
2023-03-01T00:46:11.465Z,33.33
2023-03-01T00:48:38.808Z,30.60
2023-03-01T00:51:07.103Z,20.35
2023-03-01T00:53:34.438Z,21.83
2023-03-01T00:56:03.333Z,21.35
2023-03-01T00:58:30.519Z,19.73
2023-03-01T01:00:57.575Z,17.70
2023-03-01T01:03:25.123Z,18.40
2023-03-01T01:05:52.759Z,19.25
2023-03-01T01:08:19.921Z,19.48
2023-03-01T01:10:47.643Z,18.83
2023-03-01T01:13:16.266Z,19.90
2023-03-01T01:15:43.289Z,19.83
2023-03-01T01:18:13.079Z,19.27
2023-03-01T01:20:40.019Z,20.23
2023-03-01T01:23:07.293Z,19.80
2023-03-01T01:25:36.182Z,19.80
2023-03-01T01:28:03.452Z,18.40
2023-03-01T01:30:31.847Z,20.75
2023-03-01T01:32:58.860Z,17.00
2023-03-01T01:35:26.024Z,17.77
2023-03-01T01:37:53.079Z,16.35
2023-03-01T01:40:20.296Z,18.08
2023-03-01T01:42:47.499Z,17.90
2023-03-01T01:45:33.173Z,15.27
2023-03-01T01:48:04.188Z,16.30
2023-03-01T01:50:32.604Z,16.83
2023-03-01T01:53:03.020Z,18.25
2023-03-01T01:55:30.898Z,18.65
2023-03-01T01:58:07.000Z,19.20
2023-03-01T02:01:16.808Z,19.15
2023-03-01T02:04:45.913Z,14.50
2023-03-01T02:10:53.183Z,15.27
2023-03-01T02:14:15.688Z,17.70
2023-03-01T02:20:50.968Z,18.63
2023-03-01T02:23:25.735Z,16.48
2023-03-01T02:26:43.494Z,16.55
2023-03-01T02:29:56.295Z,13.85
2023-03-01T02:33:04.023Z,16.40
2023-03-01T02:43:00.148Z,14.27
2023-03-01T02:46:45.037Z,16.13
2023-03-01T02:56:15.513Z,13.43
2023-03-01T02:59:32.133Z,15.68
2023-03-01T03:09:15.839Z,16.10
2023-03-01T03:15:12.715Z,14.82
2023-03-01T03:18:34.940Z,13.32
2023-03-01T03:28:16.085Z,15.40
2023-03-01T03:31:04.606Z,15.20
2023-03-01T03:37:36.146Z,15.30
2023-03-01T03:40:29.523Z,16.48
2023-03-01T03:47:34.601Z,15.68
2023-03-01T03:50:21.122Z,14.90
2023-03-01T03:53:02.002Z,14.43
2023-03-01T03:56:03.005Z,21.05
2023-03-01T03:59:13.481Z,16.45
2023-03-01T04:08:38.383Z,16.88
2023-03-01T04:15:22.690Z,17.00
2023-03-01T04:21:15.002Z,16.35
2023-03-01T04:24:09.942Z,16.15
2023-03-01T04:27:00.071Z,11.32
2023-03-01T04:33:24.668Z,15.45
2023-03-01T04:35:55.714Z,14.75
2023-03-01T04:38:31.604Z,16.20
2023-03-01T04:41:36.570Z,15.70
2023-03-01T04:47:10.281Z,16.88
2023-03-01T04:50:04.633Z,17.52
2023-03-01T04:53:24.788Z,16.35
2023-03-01T04:56:14.051Z,18.00
2023-03-01T04:59:19.764Z,16.27
2023-03-01T05:02:29.612Z,16.45
2023-03-01T05:15:56.628Z,12.67
2023-03-01T05:36:14.573Z,16.23
2023-03-01T05:53:53.985Z,14.68
2023-03-01T06:04:02.787Z,16.42
2023-03-01T06:40:54.711Z,19.33
2023-03-01T06:43:21.874Z,18.35
2023-03-01T06:45:49.093Z,19.05
2023-03-01T06:48:16.566Z,22.92
2023-03-01T06:50:43.959Z,20.00
2023-03-01T06:53:11.145Z,21.25
2023-03-01T06:55:38.324Z,20.13
2023-03-01T06:58:07.022Z,19.10
2023-03-01T07:00:34.513Z,19.75
2023-03-01T07:03:02.650Z,18.52
2023-03-01T07:05:37.463Z,18.48
2023-03-01T07:08:04.619Z,17.85
2023-03-01T07:10:31.786Z,17.45
2023-03-01T07:13:00.248Z,22.45
2023-03-01T07:15:29.147Z,18.13
2023-03-01T07:17:57.527Z,18.92
2023-03-01T07:20:24.574Z,17.67
2023-03-01T07:22:52.039Z,20.20
2023-03-01T07:25:19.501Z,15.88
2023-03-01T07:27:51.018Z,16.90
2023-03-01T07:30:18.784Z,20.90
2023-03-01T07:32:47.606Z,19.90
2023-03-01T07:35:15.023Z,17.80
2023-03-01T07:37:42.282Z,20.15
2023-03-01T07:40:15.325Z,20.42
2023-03-01T07:42:42.391Z,17.80
2023-03-01T07:45:10.164Z,18.42
2023-03-01T07:47:38.233Z,17.27
2023-03-01T07:50:07.750Z,18.23
2023-03-01T07:52:37.794Z,17.50
2023-03-01T07:55:05.526Z,18.35
2023-03-01T07:57:32.625Z,17.13
2023-03-01T08:00:00.397Z,18.48
2023-03-01T08:02:27.445Z,19.02
2023-03-01T08:04:54.461Z,23.38
2023-03-01T08:07:23.386Z,21.55
2023-03-01T08:09:50.509Z,16.83
2023-03-01T08:12:17.567Z,17.83
2023-03-01T08:14:44.716Z,17.40
2023-03-01T08:17:14.350Z,20.85
2023-03-01T08:19:41.505Z,21.80
2023-03-01T08:22:08.450Z,17.33
2023-03-01T08:24:36.906Z,18.38
2023-03-01T08:27:04.071Z,17.38
2023-03-01T08:29:32.239Z,17.80
2023-03-01T08:31:59.418Z,19.77
2023-03-01T08:34:26.998Z,22.33
2023-03-01T08:36:54.402Z,19.17
2023-03-01T08:39:24.136Z,18.80
2023-03-01T08:41:53.261Z,18.13
2023-03-01T08:44:20.508Z,25.42
2023-03-01T08:46:47.686Z,19.10
2023-03-01T08:49:16.539Z,18.90
2023-03-01T08:51:46.695Z,18.73
2023-03-01T08:54:16.289Z,16.50
2023-03-01T08:56:47.231Z,16.60
2023-03-01T08:59:17.395Z,20.45
2023-03-01T09:01:48.566Z,20.75
2023-03-01T09:04:16.408Z,21.23
2023-03-01T09:06:44.034Z,15.82
2023-03-01T09:09:15.385Z,20.13
2023-03-01T09:11:44.218Z,18.70
2023-03-01T09:14:12.302Z,15.38
2023-03-01T09:16:40.737Z,18.20
2023-03-01T09:19:08.143Z,15.88
2023-03-01T09:21:40.500Z,15.80
2023-03-01T09:24:14.014Z,15.73
2023-03-01T09:26:41.060Z,16.92
2023-03-01T09:29:13.066Z,18.08
2023-03-01T09:31:42.525Z,18.42
2023-03-01T09:34:10.535Z,19.45
2023-03-01T09:36:37.748Z,16.92
2023-03-01T09:39:05.652Z,17.02
2023-03-01T09:41:47.641Z,15.70
2023-03-01T09:44:27.045Z,16.27
2023-03-01T09:46:56.481Z,19.58
2023-03-01T09:49:26.620Z,21.15
2023-03-01T09:52:00.677Z,15.48
2023-03-01T09:54:28.489Z,16.15
2023-03-01T09:57:05.259Z,16.85
2023-03-01T09:59:49.387Z,18.08
2023-03-01T10:02:27.376Z,16.77
2023-03-01T10:04:58.003Z,19.42
2023-03-01T10:07:33.655Z,19.15
2023-03-01T10:10:01.052Z,18.75
2023-03-01T10:12:33.782Z,18.38
2023-03-01T10:15:06.523Z,17.92
2023-03-01T10:17:40.903Z,17.27
2023-03-01T10:20:18.137Z,17.33
2023-03-01T10:22:45.277Z,16.83
2023-03-01T10:25:15.699Z,17.98
2023-03-01T10:27:50.322Z,14.88
2023-03-01T10:30:22.072Z,18.70
2023-03-01T10:32:53.726Z,17.17
2023-03-01T10:35:23.657Z,15.57
2023-03-01T10:38:05.883Z,17.27
2023-03-01T10:40:34.162Z,15.95
2023-03-01T10:43:03.785Z,19.08
2023-03-01T10:45:40.908Z,17.02
2023-03-01T10:48:14.933Z,15.70
2023-03-01T10:50:43.304Z,16.98
2023-03-01T10:53:23.898Z,24.15
2023-03-01T10:55:58.803Z,18.88
2023-03-01T10:58:25.797Z,18.48
2023-03-01T11:00:54.872Z,19.80
2023-03-01T11:03:26.100Z,20.13
2023-03-01T11:05:56.527Z,21.73
2023-03-01T11:08:39.359Z,15.98
2023-03-01T11:11:15.356Z,20.92
2023-03-01T11:13:54.418Z,20.48
2023-03-01T11:16:28.292Z,19.30
2023-03-01T11:19:04.796Z,18.27
2023-03-01T11:21:35.566Z,18.00
2023-03-01T11:24:04.279Z,17.77
2023-03-01T11:26:35.474Z,17.10
2023-03-01T11:29:07.341Z,16.63
2023-03-01T11:31:35.458Z,18.55
2023-03-01T11:34:12.513Z,17.85
2023-03-01T11:36:45.129Z,18.65
2023-03-01T11:39:26.108Z,17.63
2023-03-01T11:42:12.925Z,15.32
2023-03-01T11:44:48.820Z,14.93
2023-03-01T11:47:34.050Z,16.48
2023-03-01T11:53:09.457Z,15.55
2023-03-01T11:55:56.750Z,16.67
2023-03-01T11:59:00.834Z,19.35
2023-03-01T12:01:36.239Z,15.35
2023-03-01T12:04:37.713Z,16.17
2023-03-01T12:07:11.674Z,15.40
2023-03-01T12:09:50.409Z,17.30
2023-03-01T12:12:35.610Z,17.67
2023-03-01T12:15:42.073Z,15.00
2023-03-01T12:18:30.153Z,16.70
2023-03-01T12:21:06.586Z,15.70
2023-03-01T12:24:02.226Z,18.80
2023-03-01T12:26:33.383Z,13.63
2023-03-01T12:29:32.697Z,14.95
2023-03-01T12:32:25.829Z,16.25
2023-03-01T12:35:07.356Z,15.30
2023-03-01T12:37:44.107Z,14.68
2023-03-01T12:40:38.680Z,15.13
2023-03-01T12:43:20.541Z,14.77
2023-03-01T12:46:11.940Z,15.68
2023-03-01T12:48:51.804Z,13.77
2023-03-01T12:51:23.849Z,15.23
2023-03-01T12:53:52.337Z,16.17
2023-03-01T12:56:23.933Z,14.07
2023-03-01T12:59:01.353Z,15.35
2023-03-01T13:01:38.335Z,14.10
2023-03-01T13:04:30.480Z,13.07
2023-03-01T13:07:24.299Z,13.15
2023-03-01T13:09:59.192Z,14.45
2023-03-01T13:18:38.549Z,14.98
2023-03-01T13:21:06.705Z,12.75
2023-03-01T13:23:37.333Z,12.45
2023-03-01T13:26:14.004Z,12.90
2023-03-01T13:28:56.839Z,13.75
2023-03-01T13:32:00.317Z,11.60
2023-03-01T13:34:56.930Z,13.80
2023-03-01T13:37:29.620Z,13.55
2023-03-01T13:39:58.364Z,12.82
2023-03-01T13:42:50.029Z,15.98
2023-03-01T13:45:24.500Z,12.85
2023-03-01T13:47:55.598Z,15.02
2023-03-01T13:50:26.383Z,14.93
2023-03-01T13:52:57.308Z,14.70
2023-03-01T13:55:28.151Z,15.65
2023-03-01T13:57:58.117Z,13.27
2023-03-01T14:00:37.231Z,14.18
2023-03-01T14:03:15.887Z,17.52
2023-03-01T14:06:11.153Z,13.10
2023-03-01T14:08:40.330Z,19.00
2023-03-01T14:11:55.439Z,17.08
2023-03-01T14:14:41.373Z,15.45
2023-03-01T14:17:56.323Z,15.70
2023-03-01T14:20:26.622Z,16.48
2023-03-01T14:22:58.243Z,18.10
2023-03-01T14:25:28.459Z,14.52
2023-03-01T14:28:06.378Z,16.17
2023-03-01T14:30:38.313Z,13.85
2023-03-01T14:33:07.880Z,17.20
2023-03-01T14:35:37.484Z,16.05
2023-03-01T14:38:06.112Z,13.80
2023-03-01T14:40:35.850Z,12.50
2023-03-01T14:43:11.961Z,13.10
2023-03-01T14:45:38.988Z,14.93
2023-03-01T14:48:08.427Z,13.00
2023-03-01T14:50:41.045Z,14.63
2023-03-01T14:53:19.018Z,12.88
2023-03-01T14:55:48.626Z,12.65
2023-03-01T14:58:23.446Z,12.38
2023-03-01T15:00:53.302Z,14.15
2023-03-01T15:03:26.729Z,13.40
2023-03-01T15:05:54.265Z,14.27
2023-03-01T15:08:25.798Z,11.90
2023-03-01T15:11:01.277Z,15.40
2023-03-01T15:13:32.497Z,17.40
2023-03-01T15:16:08.140Z,14.60
2023-03-01T15:18:37.101Z,14.75
2023-03-01T15:21:09.389Z,13.73
2023-03-01T15:23:40.539Z,14.52
2023-03-01T15:26:22.172Z,15.40
2023-03-01T15:28:52.904Z,14.38
2023-03-01T15:31:22.430Z,11.68
2023-03-01T15:33:49.946Z,15.23
2023-03-01T15:36:40.220Z,13.85
2023-03-01T15:39:31.261Z,14.27
2023-03-01T15:41:58.312Z,12.80
2023-03-01T15:44:35.011Z,17.02
2023-03-01T15:47:25.687Z,18.65
2023-03-01T15:50:20.220Z,14.93
2023-03-01T15:52:47.493Z,14.27
2023-03-01T15:55:25.280Z,15.07
2023-03-01T15:57:59.683Z,15.90
2023-03-01T16:00:26.925Z,10.85
2023-03-01T16:02:54.115Z,14.88
2023-03-01T16:05:24.181Z,15.38
2023-03-01T16:07:51.954Z,14.73
2023-03-01T16:10:19.561Z,15.88
2023-03-01T16:12:48.227Z,14.70
2023-03-01T16:15:18.124Z,14.45
2023-03-01T16:17:45.606Z,14.27
2023-03-01T16:20:19.618Z,13.90
2023-03-01T16:22:50.175Z,14.65
2023-03-01T16:25:18.927Z,13.90
2023-03-01T16:27:49.052Z,14.10
2023-03-01T16:30:18.232Z,14.77
2023-03-01T16:32:46.899Z,12.85
2023-03-01T16:35:16.411Z,12.95
2023-03-01T16:37:43.864Z,13.98
2023-03-01T16:40:19.071Z,13.45
2023-03-01T16:42:47.946Z,15.15
2023-03-01T16:45:23.857Z,13.10
2023-03-01T16:47:55.494Z,16.00
2023-03-01T16:50:23.082Z,14.10
2023-03-01T16:52:50.536Z,14.95
2023-03-01T16:55:17.683Z,12.80
2023-03-01T16:57:44.819Z,14.18
2023-03-01T17:00:17.414Z,16.75
2023-03-01T17:02:44.716Z,15.90
2023-03-01T17:05:12.150Z,14.20
2023-03-01T17:07:40.240Z,15.00
2023-03-01T17:10:10.185Z,13.82
2023-03-01T17:12:38.167Z,16.42
2023-03-01T17:15:06.615Z,16.30
2023-03-01T17:17:35.439Z,16.42
2023-03-01T17:20:04.713Z,16.08
2023-03-01T17:22:31.919Z,15.68
2023-03-01T17:24:59.109Z,14.73
2023-03-01T17:27:31.476Z,15.68
2023-03-01T17:29:58.600Z,14.85
2023-03-01T17:32:25.914Z,12.98
2023-03-01T17:35:01.302Z,15.88
2023-03-01T17:37:44.696Z,12.48
2023-03-01T17:40:16.032Z,14.82
2023-03-01T17:42:43.124Z,13.63
2023-03-01T17:45:13.018Z,15.40
2023-03-01T17:47:40.158Z,13.95
2023-03-01T17:50:10.115Z,13.43
2023-03-01T17:52:39.981Z,13.15
2023-03-01T17:55:07.907Z,14.90
2023-03-01T17:57:35.001Z,13.55
2023-03-01T18:00:03.336Z,12.88
2023-03-01T18:02:30.407Z,18.13
2023-03-01T18:04:58.516Z,15.48
2023-03-01T18:07:28.127Z,15.48
2023-03-01T18:09:56.000Z,18.25
2023-03-01T18:12:23.169Z,15.43
2023-03-01T18:14:50.628Z,16.40
2023-03-01T18:17:17.704Z,13.50
2023-03-01T18:19:45.240Z,15.68
2023-03-01T18:22:12.654Z,15.80
2023-03-01T18:24:44.404Z,13.70
2023-03-01T18:27:11.463Z,18.63
2023-03-01T18:29:38.529Z,13.98
2023-03-01T18:32:10.757Z,16.63
2023-03-01T18:34:37.980Z,15.88
2023-03-01T18:37:12.128Z,16.88
2023-03-01T18:39:40.578Z,16.27
2023-03-01T18:42:07.950Z,16.45
2023-03-01T18:44:35.378Z,15.38
2023-03-01T18:47:02.406Z,19.13
2023-03-01T18:49:29.778Z,13.75
2023-03-01T18:51:56.841Z,14.40
2023-03-01T18:54:24.298Z,14.73
2023-03-01T18:56:52.748Z,15.23
2023-03-01T18:59:20.302Z,16.10
2023-03-01T19:01:47.336Z,15.85
2023-03-01T19:04:14.354Z,15.95
2023-03-01T19:06:41.463Z,17.35
2023-03-01T19:09:09.135Z,15.77
2023-03-01T19:11:36.193Z,17.13
2023-03-01T19:14:05.188Z,19.50
2023-03-01T19:16:33.999Z,17.20
2023-03-01T19:19:04.027Z,17.80
2023-03-01T19:21:37.679Z,16.20
2023-03-01T19:24:05.391Z,16.02
2023-03-01T19:26:33.228Z,17.65
2023-03-01T19:29:00.804Z,20.58
2023-03-01T19:31:30.349Z,20.13
2023-03-01T19:34:11.471Z,22.13
2023-03-01T19:36:39.294Z,17.38
2023-03-01T19:39:07.519Z,19.52
2023-03-01T19:41:34.761Z,16.58
2023-03-01T19:44:02.036Z,16.67
2023-03-01T19:46:33.783Z,17.85
2023-03-01T19:49:01.301Z,21.73
2023-03-01T19:51:38.033Z,18.52
2023-03-01T19:54:05.703Z,19.70
2023-03-01T19:56:33.569Z,21.58
2023-03-01T19:59:09.744Z,22.52
2023-03-01T20:01:38.310Z,20.50
2023-03-01T20:04:05.412Z,23.90
2023-03-01T20:06:32.834Z,21.88
2023-03-01T20:09:09.056Z,21.83
2023-03-01T20:11:46.351Z,22.60
2023-03-01T20:14:13.370Z,22.63
2023-03-01T20:16:41.776Z,20.75
2023-03-01T20:19:12.024Z,20.27
2023-03-01T20:21:39.007Z,21.70
2023-03-01T20:24:06.309Z,21.25
2023-03-01T20:26:39.997Z,24.23
2023-03-01T20:29:08.068Z,21.92
2023-03-01T20:31:35.070Z,24.27
2023-03-01T20:34:03.590Z,24.40
2023-03-01T20:36:30.568Z,20.75
2023-03-01T20:38:57.840Z,25.15
2023-03-01T20:41:25.000Z,20.73
2023-03-01T20:43:52.439Z,23.55
2023-03-01T20:46:20.395Z,19.88
2023-03-01T20:48:47.441Z,22.27
2023-03-01T20:51:15.891Z,22.23
2023-03-01T20:53:43.031Z,26.55
2023-03-01T20:56:12.419Z,21.45
2023-03-01T20:58:43.140Z,20.48
2023-03-01T21:01:14.428Z,22.70
2023-03-01T21:03:41.563Z,22.52
2023-03-01T21:06:08.892Z,19.10
2023-03-01T21:08:37.769Z,24.08
2023-03-01T21:11:07.279Z,23.50
2023-03-01T21:13:35.599Z,23.33
2023-03-01T21:16:05.318Z,22.30
2023-03-01T21:18:33.189Z,26.33
2023-03-01T21:21:00.930Z,23.95
2023-03-01T21:23:29.765Z,24.15
2023-03-01T21:26:03.661Z,24.25
2023-03-01T21:28:31.115Z,23.27
2023-03-01T21:31:03.586Z,23.70
2023-03-01T21:33:30.765Z,23.45
2023-03-01T21:36:01.927Z,25.50
2023-03-01T21:38:32.448Z,24.85
2023-03-01T21:41:07.782Z,22.77
2023-03-01T21:43:35.548Z,22.80
2023-03-01T21:46:07.288Z,21.63
2023-03-01T21:48:34.626Z,21.98
2023-03-01T21:51:02.710Z,24.38
2023-03-01T21:53:31.603Z,22.10
2023-03-01T21:55:59.272Z,23.73
2023-03-01T21:58:28.708Z,25.75
2023-03-01T22:00:56.027Z,22.05
2023-03-01T22:03:23.228Z,21.75
2023-03-01T22:05:55.159Z,23.15
2023-03-01T22:08:22.216Z,23.88
2023-03-01T22:10:50.928Z,21.92
2023-03-01T22:13:18.964Z,21.48
2023-03-01T22:15:47.759Z,22.08
2023-03-01T22:18:14.829Z,21.98
2023-03-01T22:20:49.848Z,25.17
2023-03-01T22:25:54.402Z,26.60
2023-03-01T22:28:24.537Z,26.63
2023-03-01T22:31:04.098Z,26.90
2023-03-01T22:33:31.323Z,23.88
2023-03-01T22:35:58.426Z,28.70
2023-03-01T22:38:25.535Z,25.48
2023-03-01T22:40:59.698Z,25.80
2023-03-01T22:43:27.521Z,25.93
2023-03-01T22:46:01.860Z,25.63
2023-03-01T22:48:29.130Z,28.70
2023-03-01T22:50:56.235Z,26.15
2023-03-01T22:53:23.297Z,26.20
2023-03-01T22:55:50.352Z,26.73
2023-03-01T22:58:17.473Z,26.98
2023-03-01T23:00:44.671Z,25.33
2023-03-01T23:03:24.843Z,25.40
2023-03-01T23:05:51.976Z,29.60
2023-03-01T23:08:19.032Z,25.75
2023-03-01T23:10:46.125Z,27.48
2023-03-01T23:13:13.141Z,31.80
2023-03-01T23:15:40.256Z,25.30
2023-03-01T23:18:07.462Z,26.13
2023-03-01T23:20:40.065Z,23.48
2023-03-01T23:23:07.100Z,24.13
2023-03-01T23:25:34.134Z,24.58
2023-03-01T23:28:01.160Z,22.30
2023-03-01T23:30:28.195Z,24.23
2023-03-01T23:32:55.243Z,25.35
2023-03-01T23:35:22.940Z,29.05
2023-03-01T23:37:51.749Z,28.20
2023-03-01T23:40:18.939Z,25.50
2023-03-01T23:42:46.735Z,30.98
2023-03-01T23:45:13.732Z,26.17
2023-03-01T23:47:40.817Z,24.35
2023-03-01T23:50:10.955Z,24.20
2023-03-01T23:52:39.968Z,25.63
2023-03-01T23:55:11.379Z,28.88
2023-03-01T23:57:38.538Z,23.63
